Lovejoy, Illinois
Current Conditions -  °F | °C
As of 3:51 AM on Friday 24 Oct 2014 (Local Time) from KCPS Reporting Station
Haze Haze  
Wind Chill: 52°   Ceiling: 3500
Heat Index: 52°   Visibility: 3mi
Dew Point: 48°   Wind: 0mph
Humidity: 86%   Direction: NA
Pressure: 30.09"   Gusts: NA
Location:  38.63°N, 90.15°W
Report Text: KCPS 240851Z AUTO 00000KT 3SM BR BKN035 BKN055 11/09 A3009 RMK AO2 SLP187 T01110089 56004
Loading
Personal Weather Stations






























Interactive Weather Map
Tropical Storm Tracking
New forecast layout! Learn more

10-Day Weather Forecast

Advertisements
Track Severe Weather on mobile